createdAt,value
2018-08-07T00:01:02.056Z,18.20
2018-08-07T00:03:31.083Z,18.20
2018-08-07T00:05:59.366Z,18.20
2018-08-07T00:08:27.676Z,18.10
2018-08-07T00:10:55.959Z,18.00
2018-08-07T00:13:24.295Z,18.00
2018-08-07T00:15:52.616Z,18.00
2018-08-07T00:18:20.923Z,17.80
2018-08-07T00:20:49.322Z,17.80
2018-08-07T00:23:17.647Z,17.70
2018-08-07T00:25:45.985Z,17.70
2018-08-07T00:28:14.266Z,17.60
2018-08-07T00:30:42.639Z,17.60
2018-08-07T00:33:10.953Z,17.60
2018-08-07T00:35:39.370Z,17.50
2018-08-07T00:38:07.747Z,17.40
2018-08-07T00:40:36.043Z,17.40
2018-08-07T00:43:04.421Z,17.40
2018-08-07T00:45:32.803Z,17.30
2018-08-07T00:48:01.881Z,17.20
2018-08-07T00:50:30.398Z,17.20
2018-08-07T00:52:58.739Z,17.30
2018-08-07T00:55:27.074Z,17.20
2018-08-07T00:57:55.447Z,17.10
2018-08-07T01:00:23.821Z,17.10
2018-08-07T01:02:52.172Z,17.10
2018-08-07T01:05:20.477Z,17.10
2018-08-07T01:07:48.777Z,17.00
2018-08-07T01:10:18.084Z,17.00
2018-08-07T01:15:16.868Z,17.00
2018-08-07T01:17:45.816Z,17.00
2018-08-07T01:20:23.545Z,17.00
2018-08-07T01:22:52.180Z,17.00
2018-08-07T01:25:23.655Z,16.90
2018-08-07T01:27:51.998Z,16.90
2018-08-07T01:30:23.887Z,16.80
2018-08-07T01:32:52.295Z,16.80
2018-08-07T01:35:20.662Z,16.60
2018-08-07T01:37:48.997Z,16.50
2018-08-07T01:40:17.342Z,16.20
2018-08-07T01:42:45.665Z,16.10
2018-08-07T01:45:13.976Z,16.10
2018-08-07T01:47:42.289Z,16.10
2018-08-07T01:50:11.994Z,16.20
2018-08-07T01:52:40.287Z,16.10
2018-08-07T01:57:38.010Z,16.00
2018-08-07T02:00:10.707Z,16.00
2018-08-07T02:02:39.378Z,16.00
2018-08-07T02:05:09.297Z,16.00
2018-08-07T02:07:37.661Z,16.10
2018-08-07T02:10:08.271Z,16.00
2018-08-07T02:12:36.622Z,16.00
2018-08-07T02:15:05.690Z,15.90
2018-08-07T02:17:34.248Z,16.10
2018-08-07T02:20:02.616Z,16.10
2018-08-07T02:22:30.920Z,16.10
2018-08-07T02:24:59.465Z,16.10
2018-08-07T02:27:27.777Z,16.20
2018-08-07T02:29:56.070Z,16.10
2018-08-07T02:32:24.387Z,16.20
2018-08-07T02:34:52.754Z,16.40
2018-08-07T02:37:21.183Z,16.50
2018-08-07T02:39:49.494Z,16.50
2018-08-07T02:42:17.942Z,16.50
2018-08-07T02:44:46.225Z,16.40
2018-08-07T02:47:14.572Z,16.50
2018-08-07T02:49:42.912Z,16.50
2018-08-07T02:52:11.202Z,16.30
2018-08-07T02:54:39.568Z,16.40
2018-08-07T02:57:07.883Z,16.20
2018-08-07T02:59:36.213Z,16.30
2018-08-07T03:02:04.574Z,16.30
2018-08-07T03:04:33.840Z,16.20
2018-08-07T03:07:02.198Z,16.10
2018-08-07T03:11:58.503Z,16.00
2018-08-07T03:14:26.812Z,16.60
2018-08-07T03:16:55.105Z,15.80
2018-08-07T03:19:23.451Z,15.70
2018-08-07T03:21:51.726Z,15.60
2018-08-07T03:24:20.002Z,15.50
2018-08-07T03:26:48.321Z,15.50
2018-08-07T03:29:16.611Z,15.50
2018-08-07T03:31:44.914Z,15.60
2018-08-07T03:34:13.233Z,15.60
2018-08-07T03:39:12.296Z,15.70
2018-08-07T03:41:40.759Z,15.80
2018-08-07T03:44:09.748Z,15.80
2018-08-07T03:46:38.191Z,15.80
2018-08-07T03:49:06.725Z,15.90
2018-08-07T03:51:35.028Z,15.80
2018-08-07T03:54:03.314Z,15.70
2018-08-07T03:56:31.682Z,15.60
2018-08-07T03:59:00.043Z,15.50
2018-08-07T04:01:28.317Z,15.50
2018-08-07T04:03:56.706Z,15.40
2018-08-07T04:06:25.025Z,15.40
2018-08-07T04:08:53.331Z,15.50
2018-08-07T04:11:21.644Z,15.50
2018-08-07T04:13:50.558Z,15.60
2018-08-07T04:16:18.902Z,15.50
2018-08-07T04:18:47.273Z,15.50
2018-08-07T04:21:15.622Z,15.60
2018-08-07T04:23:43.928Z,15.60
2018-08-07T04:26:12.303Z,15.70
2018-08-07T04:28:40.574Z,15.80
2018-08-07T04:31:08.890Z,15.90
2018-08-07T04:33:37.581Z,15.90
2018-08-07T04:36:05.925Z,15.80
2018-08-07T04:38:34.257Z,15.90
2018-08-07T04:41:02.537Z,15.90
2018-08-07T04:43:30.841Z,16.00
2018-08-07T04:45:59.321Z,15.90
2018-08-07T04:48:27.531Z,16.00
2018-08-07T04:50:55.905Z,15.90
2018-08-07T04:53:24.209Z,15.90
2018-08-07T04:58:20.581Z,16.20
2018-08-07T05:00:48.872Z,16.40
2018-08-07T05:03:17.201Z,16.70
2018-08-07T05:05:45.510Z,16.70
2018-08-07T05:08:13.797Z,16.80
2018-08-07T05:10:42.177Z,17.00
2018-08-07T05:13:10.525Z,17.20
2018-08-07T05:15:38.828Z,17.30
2018-08-07T05:18:07.186Z,17.40
2018-08-07T05:20:35.535Z,17.30
2018-08-07T05:23:03.852Z,17.10
2018-08-07T05:25:32.168Z,16.80
2018-08-07T05:28:00.490Z,16.80
2018-08-07T05:30:28.809Z,16.80
2018-08-07T05:32:57.115Z,16.80
2018-08-07T05:35:25.464Z,16.80
2018-08-07T05:37:53.843Z,17.10
2018-08-07T05:40:22.147Z,17.30
2018-08-07T05:42:50.589Z,17.50
2018-08-07T05:45:18.791Z,17.70
2018-08-07T05:47:47.113Z,17.80
2018-08-07T05:50:16.482Z,18.00
2018-08-07T05:52:44.790Z,18.30
2018-08-07T05:55:13.227Z,18.50
2018-08-07T05:57:41.541Z,18.70
2018-08-07T06:00:13.867Z,18.80
2018-08-07T06:02:42.183Z,18.90
2018-08-07T06:05:10.722Z,19.20
2018-08-07T06:07:39.041Z,19.30
2018-08-07T06:10:08.823Z,19.30
2018-08-07T06:12:37.158Z,19.60
2018-08-07T06:15:07.848Z,20.00
2018-08-07T06:17:36.201Z,20.30
2018-08-07T06:20:05.130Z,20.70
2018-08-07T06:22:33.439Z,20.90
2018-08-07T06:25:01.725Z,21.20
2018-08-07T06:27:30.036Z,21.50
2018-08-07T06:29:58.358Z,21.80
2018-08-07T06:32:26.731Z,22.20
2018-08-07T06:34:55.085Z,22.40
2018-08-07T06:37:23.405Z,22.50
2018-08-07T06:39:51.759Z,22.20
2018-08-07T06:42:20.116Z,22.00
2018-08-07T06:44:48.435Z,21.90
2018-08-07T06:47:16.786Z,21.90
2018-08-07T06:49:45.102Z,21.80
2018-08-07T06:52:13.472Z,21.80
2018-08-07T06:54:41.824Z,21.70
2018-08-07T06:57:10.150Z,21.80
2018-08-07T07:02:06.473Z,22.40
2018-08-07T07:04:34.798Z,23.50
2018-08-07T07:07:03.120Z,24.00
2018-08-07T07:09:31.517Z,24.20
2018-08-07T07:11:59.799Z,24.70
2018-08-07T07:14:28.099Z,24.90
2018-08-07T07:16:56.524Z,24.80
2018-08-07T07:19:25.106Z,24.80
2018-08-07T07:21:53.648Z,25.60
2018-08-07T07:24:22.071Z,26.50
2018-08-07T07:26:50.530Z,27.20
2018-08-07T07:29:18.906Z,27.80
2018-08-07T07:31:47.251Z,27.90
2018-08-07T07:34:16.305Z,27.40
2018-08-07T07:36:44.596Z,26.80
2018-08-07T07:39:12.957Z,26.70
2018-08-07T07:41:41.295Z,27.40
2018-08-07T07:44:13.276Z,28.10
2018-08-07T07:46:42.297Z,28.90
2018-08-07T07:49:10.659Z,29.30
2018-08-07T07:51:38.962Z,29.50
2018-08-07T07:56:35.527Z,30.60
2018-08-07T07:59:05.059Z,30.60
2018-08-07T08:01:33.425Z,30.80
2018-08-07T08:04:01.780Z,30.30
2018-08-07T08:06:30.121Z,29.30
2018-08-07T08:08:58.547Z,28.70
2018-08-07T08:11:26.897Z,28.90
2018-08-07T08:13:55.241Z,29.10
2018-08-07T08:16:24.312Z,29.20
2018-08-07T08:18:52.868Z,29.10
2018-08-07T08:21:21.194Z,29.10
2018-08-07T08:23:50.361Z,28.90
2018-08-07T08:26:19.640Z,28.40
2018-08-07T08:28:47.984Z,27.60
2018-08-07T08:31:16.841Z,27.60
2018-08-07T08:33:46.166Z,28.20
2018-08-07T08:36:16.564Z,28.70
2018-08-07T08:38:45.843Z,29.10
2018-08-07T08:41:14.213Z,29.70
2018-08-07T08:43:42.660Z,29.90
2018-08-07T08:46:11.590Z,30.00
2018-08-07T08:48:42.222Z,30.30
2018-08-07T08:51:10.996Z,30.40
2018-08-07T08:53:39.410Z,30.20
2018-08-07T08:56:07.818Z,29.90
2018-08-07T08:58:37.893Z,30.20
2018-08-07T09:01:07.834Z,30.30
2018-08-07T09:03:36.151Z,30.50
2018-08-07T09:06:04.597Z,30.70
2018-08-07T09:08:33.595Z,30.90
2018-08-07T09:11:02.013Z,31.30
2018-08-07T09:13:30.412Z,31.40
2018-08-07T09:15:58.862Z,31.50
2018-08-07T09:18:27.235Z,31.50
2018-08-07T09:20:56.516Z,31.60
2018-08-07T09:23:24.879Z,31.70
2018-08-07T09:25:54.649Z,31.80
2018-08-07T09:28:23.014Z,31.80
2018-08-07T09:30:51.330Z,32.00
2018-08-07T09:33:19.732Z,32.10
2018-08-07T09:35:48.121Z,32.10
2018-08-07T09:38:16.493Z,32.30
2018-08-07T09:40:44.795Z,32.40
2018-08-07T09:43:13.116Z,32.60
2018-08-07T09:45:41.512Z,32.70
2018-08-07T09:48:11.512Z,32.80
2018-08-07T09:50:40.077Z,32.80
2018-08-07T09:55:36.715Z,32.90
2018-08-07T09:58:05.300Z,33.00
2018-08-07T10:00:39.017Z,32.90
2018-08-07T10:03:10.837Z,33.10
2018-08-07T10:05:39.265Z,33.20
2018-08-07T10:08:08.559Z,33.40
2018-08-07T10:10:36.901Z,33.40
2018-08-07T10:13:05.236Z,33.30
2018-08-07T10:15:33.571Z,33.30
2018-08-07T10:18:02.011Z,33.10
2018-08-07T10:20:30.558Z,32.90
2018-08-07T10:22:58.970Z,33.10
2018-08-07T10:25:27.462Z,33.40
2018-08-07T10:27:55.890Z,33.60
2018-08-07T10:30:25.837Z,33.20
2018-08-07T10:32:54.752Z,33.10
2018-08-07T10:35:23.183Z,33.50
2018-08-07T10:37:51.546Z,33.70
2018-08-07T10:40:23.167Z,33.70
2018-08-07T10:42:51.499Z,33.90
2018-08-07T10:45:21.179Z,34.00
2018-08-07T10:47:49.708Z,34.00
2018-08-07T10:50:20.223Z,33.90
2018-08-07T10:55:17.120Z,33.90
2018-08-07T10:57:46.857Z,33.80
2018-08-07T11:00:20.640Z,33.80
2018-08-07T11:02:56.839Z,33.80
2018-08-07T11:05:30.551Z,33.70
2018-08-07T11:07:59.426Z,33.70
2018-08-07T11:10:27.767Z,33.80
2018-08-07T11:12:56.314Z,34.00
2018-08-07T11:17:56.459Z,34.30
2018-08-07T11:20:25.045Z,34.50
2018-08-07T11:22:54.717Z,34.60
2018-08-07T11:25:25.303Z,34.80
2018-08-07T11:27:53.704Z,34.80
2018-08-07T11:30:24.052Z,34.80
2018-08-07T11:32:52.963Z,35.00
2018-08-07T11:35:22.420Z,35.10
2018-08-07T11:37:51.712Z,34.90
2018-08-07T11:40:21.536Z,34.90
2018-08-07T11:42:50.856Z,35.20
2018-08-07T11:45:22.590Z,35.40
2018-08-07T11:47:51.072Z,35.20
2018-08-07T11:50:21.826Z,34.80
2018-08-07T11:52:50.916Z,34.70
2018-08-07T11:55:20.142Z,34.80
2018-08-07T11:57:49.792Z,35.20
2018-08-07T12:00:22.518Z,35.20
2018-08-07T12:02:51.016Z,35.20
2018-08-07T12:05:20.544Z,35.40
2018-08-07T12:07:49.262Z,35.50
2018-08-07T12:10:18.660Z,35.60
2018-08-07T12:12:47.118Z,35.00
2018-08-07T12:15:17.887Z,34.60
2018-08-07T12:17:46.468Z,34.40
2018-08-07T12:20:14.851Z,34.60
2018-08-07T12:22:43.287Z,35.00
2018-08-07T12:25:12.863Z,35.50
2018-08-07T12:27:41.345Z,35.80
2018-08-07T12:30:22.137Z,36.10
2018-08-07T12:32:50.597Z,36.00
2018-08-07T12:35:18.955Z,36.20
2018-08-07T12:37:48.022Z,36.50
2018-08-07T12:40:19.705Z,36.90
2018-08-07T12:42:50.058Z,37.20
2018-08-07T12:45:18.871Z,37.30
2018-08-07T12:47:47.694Z,37.60
2018-08-07T12:50:16.917Z,37.70
2018-08-07T12:52:45.572Z,38.10
2018-08-07T12:55:15.604Z,38.90
2018-08-07T12:57:44.338Z,38.80
2018-08-07T13:02:48.534Z,38.20
2018-08-07T13:05:16.955Z,38.20
2018-08-07T13:07:45.321Z,38.90
2018-08-07T13:10:15.121Z,39.50
2018-08-07T13:12:44.198Z,38.20
2018-08-07T13:15:14.089Z,36.70
2018-08-07T13:17:42.817Z,36.30
2018-08-07T13:20:11.811Z,36.90
2018-08-07T13:22:41.067Z,36.90
2018-08-07T13:25:12.052Z,36.90
2018-08-07T13:27:40.560Z,36.00
2018-08-07T13:30:14.016Z,35.00
2018-08-07T13:32:42.791Z,34.40
2018-08-07T13:35:11.620Z,35.00
2018-08-07T13:37:40.755Z,35.10
2018-08-07T13:40:11.401Z,34.60
2018-08-07T13:42:40.124Z,34.30
2018-08-07T13:45:10.523Z,34.60
2018-08-07T13:47:39.186Z,34.40
2018-08-07T13:50:10.683Z,34.20
2018-08-07T13:52:39.159Z,33.80
2018-08-07T13:55:07.513Z,33.50
2018-08-07T13:57:35.950Z,33.70
2018-08-07T14:00:11.137Z,35.30
2018-08-07T14:02:39.619Z,37.10
2018-08-07T14:05:07.997Z,38.20
2018-08-07T14:07:36.753Z,38.40
2018-08-07T14:10:05.367Z,38.20
2018-08-07T14:12:33.752Z,38.40
2018-08-07T14:15:02.145Z,38.90
2018-08-07T14:19:59.488Z,38.50
2018-08-07T14:22:27.950Z,37.40
2018-08-07T14:24:56.283Z,37.80
2018-08-07T14:27:24.723Z,37.60
2018-08-07T14:29:53.013Z,37.90
2018-08-07T14:32:21.338Z,38.00
2018-08-07T14:34:49.714Z,38.80
2018-08-07T14:37:18.041Z,38.80
2018-08-07T14:39:46.417Z,39.20
2018-08-07T14:42:14.767Z,39.70
2018-08-07T14:44:43.073Z,39.60
2018-08-07T14:47:11.470Z,39.50
2018-08-07T14:49:39.981Z,39.60
2018-08-07T14:52:08.428Z,39.80
2018-08-07T14:54:36.899Z,39.30
2018-08-07T14:57:05.202Z,38.00
2018-08-07T14:59:33.559Z,36.80
2018-08-07T15:02:01.910Z,37.30
2018-08-07T15:04:31.240Z,38.50
2018-08-07T15:06:59.598Z,38.90
2018-08-07T15:09:27.981Z,39.80
2018-08-07T15:11:56.357Z,40.10
2018-08-07T15:14:24.725Z,39.70
2018-08-07T15:16:53.076Z,39.60
2018-08-07T15:19:21.487Z,38.90
2018-08-07T15:21:50.510Z,39.20
2018-08-07T15:24:18.878Z,39.40
2018-08-07T15:26:47.245Z,39.10
2018-08-07T15:29:15.595Z,38.70
2018-08-07T15:31:43.992Z,38.70
2018-08-07T15:34:12.308Z,39.60
2018-08-07T15:36:40.750Z,39.80
2018-08-07T15:39:11.265Z,38.50
2018-08-07T15:41:40.004Z,37.80
2018-08-07T15:44:08.444Z,37.70
2018-08-07T15:46:36.804Z,38.30
2018-08-07T15:49:05.242Z,38.80
2018-08-07T15:51:33.599Z,38.90
2018-08-07T15:54:02.013Z,38.30
2018-08-07T15:56:30.442Z,38.40
2018-08-07T15:58:58.796Z,38.40
2018-08-07T16:03:55.383Z,38.90
2018-08-07T16:06:23.717Z,39.60
2018-08-07T16:08:52.085Z,39.40
2018-08-07T16:11:20.449Z,38.90
2018-08-07T16:13:48.826Z,38.80
2018-08-07T16:16:17.186Z,38.50
2018-08-07T16:18:45.532Z,38.50
2018-08-07T16:21:14.266Z,38.80
2018-08-07T16:23:42.634Z,38.70
2018-08-07T16:26:10.984Z,38.60
2018-08-07T16:28:39.351Z,38.30
2018-08-07T16:31:07.709Z,38.40
2018-08-07T16:33:36.150Z,38.60
2018-08-07T16:36:04.520Z,38.50
2018-08-07T16:38:32.921Z,38.50
2018-08-07T16:41:01.289Z,38.10
2018-08-07T16:43:29.802Z,37.40
2018-08-07T16:45:58.173Z,37.00
2018-08-07T16:48:26.507Z,37.50
2018-08-07T16:50:54.913Z,37.00
2018-08-07T16:53:23.335Z,36.00
2018-08-07T16:55:51.651Z,35.00
2018-08-07T16:58:20.037Z,34.20
2018-08-07T17:00:48.375Z,34.30
2018-08-07T17:05:44.811Z,34.50
2018-08-07T17:08:13.200Z,34.10
2018-08-07T17:10:41.643Z,34.30
2018-08-07T17:13:09.932Z,34.50
2018-08-07T17:15:38.317Z,34.50
2018-08-07T17:20:34.770Z,34.00
2018-08-07T17:23:03.218Z,33.70
2018-08-07T17:25:31.562Z,33.40
2018-08-07T17:27:59.996Z,33.00
2018-08-07T17:30:29.347Z,32.50
2018-08-07T17:32:57.720Z,32.20
2018-08-07T17:35:26.945Z,32.00
2018-08-07T17:37:56.789Z,31.70
2018-08-07T17:40:26.539Z,31.60
2018-08-07T17:42:54.916Z,31.50
2018-08-07T17:45:23.334Z,31.40
2018-08-07T17:47:51.739Z,31.30
2018-08-07T17:50:22.314Z,31.20
2018-08-07T17:52:51.488Z,31.10
2018-08-07T17:55:21.544Z,31.00
2018-08-07T17:57:50.909Z,30.90
2018-08-07T18:00:21.832Z,30.90
2018-08-07T18:02:50.255Z,30.80
2018-08-07T18:05:18.638Z,30.70
2018-08-07T18:07:48.708Z,30.70
2018-08-07T18:10:18.341Z,30.60
2018-08-07T18:12:46.712Z,30.50
2018-08-07T18:15:16.407Z,30.40
2018-08-07T18:17:45.223Z,30.30
2018-08-07T18:20:18.524Z,30.30
2018-08-07T18:22:46.944Z,30.20
2018-08-07T18:25:15.413Z,30.30
2018-08-07T18:27:43.876Z,30.00
2018-08-07T18:30:15.809Z,29.90
2018-08-07T18:32:44.588Z,29.80
2018-08-07T18:35:15.609Z,29.70
2018-08-07T18:37:44.037Z,29.70
2018-08-07T18:40:12.436Z,29.60
2018-08-07T18:42:40.851Z,29.50
2018-08-07T18:45:11.154Z,29.50
2018-08-07T18:47:40.231Z,29.30
2018-08-07T18:50:10.785Z,29.30
2018-08-07T18:52:39.209Z,29.20
2018-08-07T18:55:10.219Z,29.20
2018-08-07T18:57:39.159Z,29.10
2018-08-07T19:00:09.512Z,29.10
2018-08-07T19:02:38.199Z,29.10
2018-08-07T19:05:07.364Z,29.00
2018-08-07T19:07:35.919Z,29.10
2018-08-07T19:10:04.600Z,28.90
2018-08-07T19:12:33.025Z,28.90
2018-08-07T19:15:01.422Z,28.80
2018-08-07T19:17:29.761Z,28.80
2018-08-07T19:19:58.186Z,28.60
2018-08-07T19:22:26.595Z,28.60
2018-08-07T19:24:54.930Z,28.60
2018-08-07T19:27:23.372Z,28.50
2018-08-07T19:29:51.732Z,28.50
2018-08-07T19:32:20.185Z,28.50
2018-08-07T19:34:48.545Z,28.40
2018-08-07T19:37:16.951Z,28.50
2018-08-07T19:39:45.321Z,28.40
2018-08-07T19:42:13.694Z,28.40
2018-08-07T19:44:42.125Z,28.40
2018-08-07T19:47:10.474Z,28.30
2018-08-07T19:49:38.853Z,28.30
2018-08-07T19:52:07.671Z,28.30
2018-08-07T19:54:36.128Z,28.20
2018-08-07T19:57:05.020Z,28.20
2018-08-07T19:59:33.531Z,28.20
2018-08-07T20:02:01.971Z,28.10
2018-08-07T20:04:30.375Z,28.10
2018-08-07T20:06:58.748Z,28.00
2018-08-07T20:09:27.121Z,27.90
2018-08-07T20:11:55.504Z,27.70
2018-08-07T20:16:53.784Z,27.70
2018-08-07T20:19:22.199Z,27.60
2018-08-07T20:21:50.613Z,27.60
2018-08-07T20:24:18.986Z,27.60
2018-08-07T20:26:47.399Z,27.50
2018-08-07T20:29:15.742Z,27.50
2018-08-07T20:31:44.186Z,27.40
2018-08-07T20:34:12.548Z,27.40
2018-08-07T20:36:40.938Z,27.40
2018-08-07T20:39:10.499Z,27.40
2018-08-07T20:41:38.907Z,27.40
2018-08-07T20:44:07.316Z,27.30
2018-08-07T20:46:35.756Z,27.40
2018-08-07T20:49:04.133Z,27.20
2018-08-07T20:51:32.580Z,27.20
2018-08-07T20:54:00.925Z,27.20
2018-08-07T20:56:30.092Z,27.20
2018-08-07T21:01:33.498Z,27.30
2018-08-07T21:04:01.945Z,27.30
2018-08-07T21:06:30.372Z,27.30
2018-08-07T21:08:58.905Z,27.10
2018-08-07T21:11:27.248Z,26.90
2018-08-07T21:13:55.634Z,26.60
2018-08-07T21:16:24.019Z,26.60
2018-08-07T21:18:52.353Z,26.50
2018-08-07T21:21:20.708Z,26.50
2018-08-07T21:23:49.044Z,26.50
2018-08-07T21:26:17.517Z,26.50
2018-08-07T21:31:13.892Z,26.40
2018-08-07T21:33:42.233Z,26.40
2018-08-07T21:36:10.562Z,26.30
2018-08-07T21:38:38.887Z,26.30
2018-08-07T21:41:07.302Z,26.30
2018-08-07T21:43:35.650Z,26.20
2018-08-07T21:46:03.998Z,26.30
2018-08-07T21:48:32.324Z,26.30
2018-08-07T21:51:00.620Z,26.20
2018-08-07T21:53:28.977Z,26.20
2018-08-07T21:55:57.361Z,26.30
2018-08-07T21:58:25.702Z,26.20
2018-08-07T22:00:54.032Z,26.20
2018-08-07T22:03:22.364Z,26.20
2018-08-07T22:05:51.013Z,26.30
2018-08-07T22:08:19.330Z,26.30
2018-08-07T22:10:47.697Z,26.30
2018-08-07T22:13:16.055Z,26.20
2018-08-07T22:15:44.377Z,26.20
2018-08-07T22:18:12.834Z,26.20
2018-08-07T22:20:41.185Z,26.10
2018-08-07T22:23:09.494Z,26.20
2018-08-07T22:25:38.649Z,26.20
2018-08-07T22:28:07.022Z,26.30
2018-08-07T22:30:35.402Z,26.50
2018-08-07T22:33:03.810Z,26.60
2018-08-07T22:35:32.120Z,26.70
2018-08-07T22:42:56.693Z,26.90
2018-08-07T22:45:25.029Z,26.80
2018-08-07T22:47:53.318Z,26.70
2018-08-07T22:50:21.662Z,26.60
2018-08-07T22:52:50.218Z,26.50
2018-08-07T22:55:19.731Z,26.20
2018-08-07T22:57:48.106Z,25.90
2018-08-07T23:00:18.963Z,25.70
2018-08-07T23:05:16.318Z,25.50
2018-08-07T23:07:44.737Z,25.30
2018-08-07T23:10:16.421Z,25.30
2018-08-07T23:12:45.049Z,25.30
2018-08-07T23:15:15.654Z,25.10
2018-08-07T23:17:44.746Z,24.90
2018-08-07T23:20:15.654Z,24.80
2018-08-07T23:22:44.019Z,24.80
2018-08-07T23:25:12.682Z,24.70
2018-08-07T23:27:41.037Z,24.70
2018-08-07T23:30:14.034Z,24.60
2018-08-07T23:32:55.995Z,24.40
2018-08-07T23:35:24.343Z,24.30
2018-08-07T23:37:52.681Z,24.20
2018-08-07T23:40:20.978Z,24.20
2018-08-07T23:42:49.521Z,24.20
2018-08-07T23:45:17.884Z,24.20
2018-08-07T23:47:46.552Z,24.00
2018-08-07T23:50:14.963Z,23.90
2018-08-07T23:52:43.309Z,23.70
2018-08-07T23:55:11.687Z,23.60
2018-08-07T23:57:40.041Z,23.60
